Alamo Heights, Texas
Current Conditions -  °F | °C
As of 8:51 AM on Tuesday 21 Oct 2014 (Local Time) from KSAT Reporting Station
Few Clouds Few Clouds  
Wind Chill: 20°   Ceiling: Unl
Heat Index: 20°   Visibility: 10mi
Dew Point: 16°   Wind: 5mph
Humidity: 78%   Direction: 30°NNE
Pressure: 30.07"   Gusts: NA
Location:  29.4797°N, 98.4508°W
Report Text: KSAT 211351Z 03004KT 10SM FEW250 20/16 A3007 RMK AO2 SLP168 T02000161
Loading
Personal Weather Stations






























Interactive Weather Map
Tropical Storm Tracking
New forecast layout! Learn more

10-Day Weather Forecast

Advertisements
Track Severe Weather on mobile